createdAt,value
2022-12-01T00:00:56.467Z,101277.59
2022-12-01T00:03:58.897Z,101275.97
2022-12-01T00:07:05.888Z,101275.88
2022-12-01T00:10:26.322Z,101271.59
2022-12-01T00:13:28.946Z,101271.50
2022-12-01T00:16:31.896Z,101280.03
2022-12-01T00:19:34.397Z,101282.59
2022-12-01T00:22:36.791Z,101280.94
2022-12-01T00:25:39.154Z,101289.41
2022-12-01T00:28:42.122Z,101294.47
2022-12-01T00:31:44.612Z,101298.69
2022-12-01T00:34:47.052Z,101288.44
2022-12-01T00:37:49.490Z,101290.91
2022-12-01T00:40:53.275Z,101288.34
2022-12-01T00:43:55.727Z,101284.09
2022-12-01T00:46:58.107Z,101286.56
2022-12-01T00:50:00.507Z,101279.81
2022-12-01T00:53:03.024Z,101275.47
2022-12-01T00:56:05.596Z,101276.44
2022-12-01T00:59:07.956Z,101263.81
2022-12-01T01:02:10.763Z,101263.84
2022-12-01T01:05:13.325Z,101257.00
2022-12-01T01:08:15.704Z,101265.41
2022-12-01T01:11:18.203Z,101256.22
2022-12-01T01:14:24.169Z,101251.13
2022-12-01T01:17:26.691Z,101246.06
2022-12-01T01:20:29.408Z,101246.00
2022-12-01T01:23:31.891Z,101250.28
2022-12-01T01:26:35.527Z,101251.25
2022-12-01T01:29:38.193Z,101248.69
2022-12-01T01:32:40.625Z,101247.00
2022-12-01T01:35:43.106Z,101246.13
2022-12-01T01:38:46.611Z,101245.31
2022-12-01T01:41:49.090Z,101247.00
2022-12-01T01:44:57.141Z,101245.34
2022-12-01T01:48:00.516Z,101248.69
2022-12-01T01:51:03.757Z,101242.72
2022-12-01T01:54:15.707Z,101245.25
2022-12-01T01:57:30.144Z,101252.84
2022-12-01T02:00:36.400Z,101248.53
2022-12-01T02:03:41.007Z,101256.16
2022-12-01T02:06:43.755Z,101251.88
2022-12-01T02:09:46.761Z,101242.53
2022-12-01T02:13:10.915Z,101238.28
2022-12-01T02:16:32.537Z,101236.56
2022-12-01T02:20:07.903Z,101222.19
2022-12-01T02:23:35.185Z,101222.09
2022-12-01T02:26:52.500Z,101224.53
2022-12-01T02:30:09.153Z,101220.34
2022-12-01T02:33:14.316Z,101226.31
2022-12-01T02:36:22.258Z,101234.75
2022-12-01T02:39:44.746Z,101243.19
2022-12-01T02:43:02.554Z,101243.16
2022-12-01T02:46:18.329Z,101238.94
2022-12-01T02:49:25.995Z,101242.34
2022-12-01T02:52:28.984Z,101242.38
2022-12-01T02:55:31.429Z,101239.81
2022-12-01T02:58:34.047Z,101239.06
2022-12-01T03:01:59.127Z,101239.03
2022-12-01T03:05:10.042Z,101239.00
2022-12-01T03:08:46.153Z,101233.91
2022-12-01T03:12:28.300Z,101242.28
2022-12-01T03:15:43.404Z,101242.25
2022-12-01T03:18:53.508Z,101253.25
2022-12-01T03:22:23.183Z,101256.44
2022-12-01T03:25:28.525Z,101259.75
2022-12-01T03:28:38.115Z,101254.78
2022-12-01T03:31:48.737Z,101261.53
2022-12-01T03:35:00.219Z,101264.97
2022-12-01T03:38:08.267Z,101260.72
2022-12-01T03:41:18.059Z,101268.41
2022-12-01T03:44:29.651Z,101262.50
2022-12-01T03:47:32.920Z,101262.50
2022-12-01T03:51:08.519Z,101256.50
2022-12-01T03:54:29.519Z,101258.97
2022-12-01T03:57:36.243Z,101259.81
2022-12-01T04:00:40.160Z,101261.47
2022-12-01T04:03:45.342Z,101257.22
2022-12-01T04:06:51.007Z,101255.63
2022-12-01T04:09:53.490Z,101250.47
2022-12-01T04:12:59.540Z,101245.31
2022-12-01T04:16:01.997Z,101251.50
2022-12-01T04:19:07.801Z,101251.47
2022-12-01T04:22:10.345Z,101241.59
2022-12-01T04:25:12.879Z,101239.16
2022-12-01T04:28:15.316Z,101243.16
2022-12-01T04:31:18.000Z,101239.72
2022-12-01T04:34:20.603Z,101242.53
2022-12-01T04:37:23.083Z,101248.44
2022-12-01T04:40:25.487Z,101244.22
2022-12-01T04:43:27.901Z,101244.28
2022-12-01T04:46:30.455Z,101240.78
2022-12-01T04:49:33.740Z,101237.41
2022-12-01T04:52:37.512Z,101228.09
2022-12-01T04:55:40.033Z,101227.38
2022-12-01T04:58:42.477Z,101236.00
2022-12-01T05:01:47.024Z,101236.06
2022-12-01T05:04:49.616Z,101236.00
2022-12-01T05:07:52.446Z,101239.28
2022-12-01T05:10:56.494Z,101241.78
2022-12-01T05:13:59.803Z,101244.31
2022-12-01T05:17:02.522Z,101238.44
2022-12-01T05:20:31.565Z,101242.59
2022-12-01T05:23:37.166Z,101235.72
2022-12-01T05:26:40.171Z,101240.03
2022-12-01T05:29:42.836Z,101250.13
2022-12-01T05:32:45.531Z,101256.81
2022-12-01T05:35:48.912Z,101258.53
2022-12-01T05:38:51.629Z,101250.91
2022-12-01T05:41:54.521Z,101250.03
2022-12-01T05:44:56.925Z,101249.19
2022-12-01T05:48:00.842Z,101247.44
2022-12-01T05:51:16.573Z,101249.84
2022-12-01T05:54:19.196Z,101251.47
2022-12-01T05:57:21.592Z,101248.88
2022-12-01T06:00:24.221Z,101251.34
2022-12-01T06:03:26.869Z,101260.50
2022-12-01T06:06:29.346Z,101259.69
2022-12-01T06:09:32.101Z,101266.47
2022-12-01T06:12:34.734Z,101266.47
2022-12-01T06:15:37.466Z,101272.41
2022-12-01T06:18:40.636Z,101269.06
2022-12-01T06:21:43.271Z,101268.25
2022-12-01T06:24:45.710Z,101269.38
2022-12-01T06:27:48.990Z,101272.72
2022-12-01T06:30:51.626Z,101268.50
2022-12-01T06:33:54.232Z,101269.41
2022-12-01T06:36:56.892Z,101272.00
2022-12-01T06:39:59.654Z,101273.00
2022-12-01T06:43:05.641Z,101269.56
2022-12-01T06:46:08.455Z,101267.09
2022-12-01T06:49:12.396Z,101263.63
2022-12-01T06:52:14.940Z,101264.53
2022-12-01T06:55:17.653Z,101263.72
2022-12-01T06:58:20.478Z,101267.28
2022-12-01T07:01:23.644Z,101268.13
2022-12-01T07:04:26.338Z,101273.34
2022-12-01T07:07:28.832Z,101266.59
2022-12-01T07:10:31.496Z,101265.00
2022-12-01T07:13:34.705Z,101273.50
2022-12-01T07:16:37.253Z,101271.88
2022-12-01T07:19:40.708Z,101268.56
2022-12-01T07:22:43.334Z,101271.16
2022-12-01T07:25:45.911Z,101272.06
2022-12-01T07:28:49.034Z,101272.13
2022-12-01T07:31:51.651Z,101271.28
2022-12-01T07:34:54.133Z,101276.44
2022-12-01T07:37:56.920Z,101277.31
2022-12-01T07:41:06.990Z,101273.09
2022-12-01T07:44:10.828Z,101268.00
2022-12-01T07:47:14.747Z,101269.72
2022-12-01T07:50:17.351Z,101273.13
2022-12-01T07:53:19.912Z,101273.09
2022-12-01T07:56:23.266Z,101265.44
2022-12-01T07:59:25.743Z,101262.03
2022-12-01T08:02:28.844Z,101259.47
2022-12-01T08:05:31.341Z,101261.13
2022-12-01T08:08:35.394Z,101251.72
2022-12-01T08:11:38.059Z,101264.44
2022-12-01T08:14:40.531Z,101260.97
2022-12-01T08:17:43.033Z,101260.94
2022-12-01T08:20:45.586Z,101260.88
2022-12-01T08:23:49.086Z,101260.88
2022-12-01T08:26:51.680Z,101269.38
2022-12-01T08:29:54.130Z,101271.91
2022-12-01T08:32:57.807Z,101273.53
2022-12-01T08:36:02.903Z,101276.03
2022-12-01T08:39:08.106Z,101281.91
2022-12-01T08:42:10.572Z,101278.47
2022-12-01T08:45:13.638Z,101282.66
2022-12-01T08:48:16.087Z,101284.31
2022-12-01T08:51:19.177Z,101279.22
2022-12-01T08:54:21.930Z,101277.38
2022-12-01T08:57:24.467Z,101288.41
2022-12-01T09:00:28.856Z,101284.94
2022-12-01T09:03:31.981Z,101283.19
2022-12-01T09:06:43.671Z,101283.06
2022-12-01T09:09:46.485Z,101278.72
2022-12-01T09:12:48.979Z,101277.78
2022-12-01T09:15:59.606Z,101271.66
2022-12-01T09:19:02.828Z,101269.06
2022-12-01T09:22:05.597Z,101269.06
2022-12-01T09:25:14.662Z,101262.19
2022-12-01T09:28:18.172Z,101254.44
2022-12-01T09:31:23.447Z,101266.31
2022-12-01T09:34:27.338Z,101256.03
2022-12-01T09:37:29.785Z,101250.81
2022-12-01T09:40:36.771Z,101249.06
2022-12-01T09:43:52.578Z,101245.50
2022-12-01T09:47:05.534Z,101237.91
2022-12-01T09:50:18.898Z,101238.59
2022-12-01T09:53:24.830Z,101234.28
2022-12-01T09:56:31.114Z,101232.47
2022-12-01T09:59:41.734Z,101232.41
2022-12-01T10:02:52.884Z,101238.16
2022-12-01T10:09:41.120Z,101222.56
2022-12-01T10:12:46.941Z,101225.84
2022-12-01T10:16:26.522Z,101216.50
2022-12-01T10:19:45.135Z,101218.84
2022-12-01T10:23:15.166Z,101192.03
2022-12-01T10:26:28.892Z,101200.47
2022-12-01T10:29:31.620Z,101198.75
2022-12-01T10:32:58.341Z,101195.34
2022-12-01T10:36:01.288Z,101192.66
2022-12-01T10:39:21.348Z,101194.09
2022-12-01T10:42:32.033Z,101183.59
2022-12-01T10:45:40.203Z,101174.97
2022-12-01T10:48:54.968Z,101175.09
2022-12-01T10:51:58.692Z,101179.16
2022-12-01T10:55:02.236Z,101177.41
2022-12-01T10:58:16.514Z,101170.56
2022-12-01T11:01:27.629Z,101174.88
2022-12-01T11:04:46.532Z,101165.47
2022-12-01T11:07:50.126Z,101165.22
2022-12-01T11:10:52.825Z,101154.91
2022-12-01T11:13:57.859Z,101149.44
2022-12-01T11:17:25.741Z,101159.63
2022-12-01T11:20:33.057Z,101156.06
2022-12-01T11:23:37.968Z,101162.44
2022-12-01T11:26:40.938Z,101149.47
2022-12-01T11:29:45.964Z,101150.25
2022-12-01T11:32:55.288Z,101144.09
2022-12-01T11:35:58.160Z,101143.16
2022-12-01T11:39:01.855Z,101146.75
2022-12-01T11:42:24.649Z,101144.72
2022-12-01T11:45:40.338Z,101152.44
2022-12-01T11:48:58.341Z,101149.47
2022-12-01T11:52:17.694Z,101146.13
2022-12-01T11:55:26.243Z,101138.88
2022-12-01T11:58:29.113Z,101146.72
2022-12-01T12:01:53.709Z,101141.84
2022-12-01T12:05:05.291Z,101140.19
2022-12-01T12:08:20.249Z,101135.44
2022-12-01T12:11:50.040Z,101143.16
2022-12-01T12:15:02.607Z,101143.56
2022-12-01T12:18:35.670Z,101144.16
2022-12-01T12:22:07.280Z,101146.75
2022-12-01T12:25:22.935Z,101147.59
2022-12-01T12:28:35.476Z,101137.09
2022-12-01T12:31:41.096Z,101141.69
2022-12-01T12:34:52.900Z,101138.63
2022-12-01T12:38:33.248Z,101134.94
2022-12-01T12:41:43.150Z,101141.19
2022-12-01T12:45:13.533Z,101130.06
2022-12-01T12:49:18.572Z,101133.09
2022-12-01T12:52:19.590Z,101136.06
2022-12-01T12:55:45.438Z,101143.81
2022-12-01T12:59:24.594Z,101137.84
2022-12-01T13:02:53.187Z,101137.97
2022-12-01T13:06:24.900Z,101136.03
2022-12-01T13:09:39.424Z,101132.84
2022-12-01T13:12:49.495Z,101133.97
2022-12-01T13:15:55.412Z,101136.81
2022-12-01T13:19:13.425Z,101133.03
2022-12-01T13:22:19.668Z,101139.53
2022-12-01T13:25:28.306Z,101142.34
2022-12-01T13:28:44.153Z,101139.72
2022-12-01T13:31:50.899Z,101143.13
2022-12-01T13:34:53.876Z,101142.72
2022-12-01T13:38:13.136Z,101140.47
2022-12-01T13:41:18.680Z,101142.63
2022-12-01T13:44:39.835Z,101141.13
2022-12-01T13:47:55.531Z,101132.94
2022-12-01T13:51:01.570Z,101146.81
2022-12-01T13:54:25.901Z,101141.88
2022-12-01T13:57:31.868Z,101146.19
2022-12-01T14:00:35.038Z,101143.59
2022-12-01T14:03:40.782Z,101142.94
2022-12-01T14:06:53.205Z,101145.31
2022-12-01T14:10:09.634Z,101145.41
2022-12-01T14:13:19.499Z,101147.34
2022-12-01T14:16:22.659Z,101148.28
2022-12-01T14:19:52.278Z,101148.41
2022-12-01T14:23:10.807Z,101152.81
2022-12-01T14:26:17.642Z,101154.78
2022-12-01T14:29:39.285Z,101153.31
2022-12-01T14:32:41.963Z,101160.22
2022-12-01T14:35:45.460Z,101155.25
2022-12-01T14:38:50.007Z,101151.94
2022-12-01T14:41:56.866Z,101153.88
2022-12-01T14:45:03.371Z,101157.34
2022-12-01T14:48:12.590Z,101154.97
2022-12-01T14:51:29.961Z,101159.44
2022-12-01T14:54:54.095Z,101156.13
2022-12-01T14:58:05.996Z,101155.34
2022-12-01T15:01:13.983Z,101153.69
2022-12-01T15:04:16.614Z,101152.75
2022-12-01T15:07:23.145Z,101150.19
2022-12-01T15:10:29.913Z,101153.59
2022-12-01T15:13:50.682Z,101156.22
2022-12-01T15:16:53.383Z,101158.72
2022-12-01T15:19:55.831Z,101151.81
2022-12-01T15:22:59.003Z,101145.13
2022-12-01T15:26:02.153Z,101145.25
2022-12-01T15:29:17.835Z,101139.13
2022-12-01T15:32:22.675Z,101142.72
2022-12-01T15:35:25.529Z,101147.00
2022-12-01T15:38:34.440Z,101143.59
2022-12-01T15:41:40.462Z,101149.66
2022-12-01T15:44:42.849Z,101138.66
2022-12-01T15:47:50.361Z,101147.88
2022-12-01T15:51:04.270Z,101144.47
2022-12-01T15:54:12.114Z,101152.00
2022-12-01T15:57:20.175Z,101153.88
2022-12-01T16:00:23.168Z,101148.03
2022-12-01T16:03:26.247Z,101156.56
2022-12-01T16:06:32.433Z,101153.19
2022-12-01T16:09:43.377Z,101150.03
2022-12-01T16:12:45.930Z,101158.50
2022-12-01T16:15:48.487Z,101144.97
2022-12-01T16:18:59.764Z,101160.34
2022-12-01T16:22:11.668Z,101156.06
2022-12-01T16:25:27.761Z,101151.03
2022-12-01T16:28:36.018Z,101155.28
2022-12-01T16:31:58.700Z,101151.09
2022-12-01T16:35:04.335Z,101151.94
2022-12-01T16:38:16.415Z,101149.41
2022-12-01T16:41:37.921Z,101153.59
2022-12-01T16:44:42.755Z,101152.72
2022-12-01T16:47:47.254Z,101160.41
2022-12-01T16:50:51.857Z,101151.91
2022-12-01T16:53:56.330Z,101151.81
2022-12-01T16:56:59.146Z,101142.44
2022-12-01T17:00:01.817Z,101156.94
2022-12-01T17:03:05.204Z,101153.50
2022-12-01T17:06:08.014Z,101153.47
2022-12-01T17:09:10.732Z,101162.00
2022-12-01T17:12:13.442Z,101154.44
2022-12-01T17:15:17.146Z,101162.19
2022-12-01T17:18:21.715Z,101167.31
2022-12-01T17:21:24.311Z,101159.75
2022-12-01T17:24:26.769Z,101181.88
2022-12-01T17:27:30.025Z,101179.34
2022-12-01T17:30:32.571Z,101180.09
2022-12-01T17:33:36.508Z,101175.88
2022-12-01T17:36:39.276Z,101174.97
2022-12-01T17:39:43.317Z,101179.25
2022-12-01T17:42:50.416Z,101177.63
2022-12-01T17:45:53.349Z,101181.91
2022-12-01T17:48:56.232Z,101178.53
2022-12-01T17:51:58.791Z,101181.09
2022-12-01T17:55:01.709Z,101175.13
2022-12-01T17:58:04.388Z,101176.88
2022-12-01T18:01:13.748Z,101178.63
2022-12-01T18:04:17.231Z,101171.88
2022-12-01T18:07:20.331Z,101183.00
2022-12-01T18:10:22.923Z,101186.41
2022-12-01T18:13:25.327Z,101182.16
2022-12-01T18:16:30.935Z,101182.13
2022-12-01T18:19:33.815Z,101177.06
2022-12-01T18:22:36.672Z,101178.78
2022-12-01T18:25:40.593Z,101186.47
2022-12-01T18:28:43.848Z,101179.66
2022-12-01T18:31:47.324Z,101191.59
2022-12-01T18:34:50.681Z,101187.31
2022-12-01T18:37:54.077Z,101190.72
2022-12-01T18:41:01.356Z,101180.56
2022-12-01T18:44:04.569Z,101188.22
2022-12-01T18:47:07.543Z,101183.09
2022-12-01T18:50:11.946Z,101184.78
2022-12-01T18:53:15.532Z,101183.09
2022-12-01T18:56:19.820Z,101189.84
2022-12-01T18:59:22.407Z,101187.31
2022-12-01T19:02:26.537Z,101186.47
2022-12-01T19:05:30.859Z,101194.97
2022-12-01T19:08:34.388Z,101191.56
2022-12-01T19:11:38.281Z,101200.91
2022-12-01T19:14:41.322Z,101200.91
2022-12-01T19:17:44.122Z,101194.97
2022-12-01T19:20:46.815Z,101206.00
2022-12-01T19:23:49.923Z,101203.44
2022-12-01T19:26:52.629Z,101207.72
2022-12-01T19:29:55.441Z,101211.97
2022-12-01T19:32:58.333Z,101204.28
2022-12-01T19:36:09.387Z,101209.41
2022-12-01T19:39:12.103Z,101211.09
2022-12-01T19:42:14.861Z,101212.78
2022-12-01T19:45:17.737Z,101208.56
2022-12-01T19:48:20.295Z,101217.91
2022-12-01T19:51:26.801Z,101211.13
2022-12-01T19:54:31.930Z,101213.66
2022-12-01T19:57:34.944Z,101208.53
2022-12-01T20:00:38.026Z,101207.72
2022-12-01T20:03:41.978Z,101202.63
2022-12-01T20:06:44.830Z,101206.03
2022-12-01T20:09:51.950Z,101210.25
2022-12-01T20:12:56.154Z,101205.19
2022-12-01T20:16:03.232Z,101212.84
2022-12-01T20:19:06.904Z,101206.88
2022-12-01T20:22:09.825Z,101206.03
2022-12-01T20:25:12.644Z,101213.66
2022-12-01T20:28:15.307Z,101208.59
2022-12-01T20:31:21.494Z,101206.03
2022-12-01T20:34:28.157Z,101204.31
2022-12-01T20:37:31.262Z,101206.00
2022-12-01T20:40:34.165Z,101208.56
2022-12-01T20:43:37.338Z,101215.38
2022-12-01T20:46:45.870Z,101211.97
2022-12-01T20:49:49.009Z,101205.16
2022-12-01T20:52:51.780Z,101217.06
2022-12-01T20:55:55.672Z,101216.22
2022-12-01T20:58:58.887Z,101219.59
2022-12-01T21:02:01.696Z,101217.91
2022-12-01T21:05:04.912Z,101217.91
2022-12-01T21:08:10.450Z,101208.56
2022-12-01T21:11:45.080Z,101210.25
2022-12-01T21:15:01.707Z,101216.22
2022-12-01T21:18:12.455Z,101220.41
2022-12-01T21:21:23.624Z,101223.75
2022-12-01T21:24:33.508Z,101229.66
2022-12-01T21:27:37.461Z,101223.72
2022-12-01T21:30:41.178Z,101224.56
2022-12-01T21:33:43.828Z,101223.72
2022-12-01T21:36:48.097Z,101237.25
2022-12-01T21:39:52.656Z,101236.38
2022-12-01T21:43:00.177Z,101237.22
2022-12-01T21:46:13.747Z,101241.47
2022-12-01T21:49:20.411Z,101249.09
2022-12-01T21:52:34.645Z,101249.06
2022-12-01T21:55:39.004Z,101251.63
2022-12-01T21:58:41.608Z,101242.31
2022-12-01T22:01:44.092Z,101247.38
2022-12-01T22:04:46.891Z,101244.81
2022-12-01T22:07:49.530Z,101244.84
2022-12-01T22:11:02.754Z,101243.97
2022-12-01T22:14:17.187Z,101244.88
2022-12-01T22:17:21.180Z,101248.25
2022-12-01T22:20:23.689Z,101244.91
2022-12-01T22:23:33.945Z,101248.31
2022-12-01T22:26:39.661Z,101250.84
2022-12-01T22:29:44.871Z,101250.84
2022-12-01T22:33:03.689Z,101248.31
2022-12-01T22:36:21.801Z,101250.00
2022-12-01T22:39:34.139Z,101244.03
2022-12-01T22:42:37.487Z,101242.34
2022-12-01T22:45:39.904Z,101240.63
2022-12-01T22:48:45.860Z,101236.38
2022-12-01T22:51:56.244Z,101232.13
2022-12-01T22:54:58.820Z,101232.97
2022-12-01T22:58:09.823Z,101228.69
2022-12-01T23:01:24.959Z,101219.31
2022-12-01T23:04:40.223Z,101227.75
2022-12-01T23:07:43.253Z,101223.50
2022-12-01T23:10:46.151Z,101224.38
2022-12-01T23:13:48.580Z,101222.63
2022-12-01T23:17:06.647Z,101222.63
2022-12-01T23:20:34.489Z,101216.84
2022-12-01T23:23:37.674Z,101224.56
2022-12-01T23:26:40.133Z,101226.25
2022-12-01T23:29:42.604Z,101221.16
2022-12-01T23:32:48.003Z,101220.34
2022-12-01T23:36:00.180Z,101217.81
2022-12-01T23:39:06.984Z,101211.88
2022-12-01T23:42:11.691Z,101221.25
2022-12-01T23:45:21.631Z,101221.25
2022-12-01T23:48:31.979Z,101221.25
2022-12-01T23:51:40.187Z,101215.31
2022-12-01T23:54:42.793Z,101214.47
2022-12-01T23:57:45.255Z,101211.06
